sensor_id;sensor_type;location;lat;lon;timestamp;P1;durP1;ratioP1;P2;durP2;ratioP2
7823;SDS011;3957;48.61947800;9.05303100;2024-03-02T00:00:16;6.55;;;4.78;;
7823;SDS011;3957;48.61947800;9.05303100;2024-03-02T00:01:19;9.45;;;4.68;;
7823;SDS011;3957;48.61947800;9.05303100;2024-03-02T00:02:21;6.85;;;4.20;;
7823;SDS011;3957;48.61947800;9.05303100;2024-03-02T00:03:22;8.45;;;5.18;;
7823;SDS011;3957;48.61947800;9.05303100;2024-03-02T00:04:24;6.50;;;4.93;;
7823;SDS011;3957;48.61947800;9.05303100;2024-03-02T00:05:25;7.28;;;5.18;;
7823;SDS011;3957;48.61947800;9.05303100;2024-03-02T00:06:27;7.60;;;5.07;;
7823;SDS011;3957;48.61947800;9.05303100;2024-03-02T00:07:28;7.57;;;5.13;;
7823;SDS011;3957;48.61947800;9.05303100;2024-03-02T00:08:30;7.33;;;4.97;;
7823;SDS011;3957;48.61947800;9.05303100;2024-03-02T00:09:32;7.72;;;5.13;;
7823;SDS011;3957;48.61947800;9.05303100;2024-03-02T00:10:38;6.68;;;4.82;;
7823;SDS011;3957;48.61947800;9.05303100;2024-03-02T00:11:43;7.35;;;5.55;;
7823;SDS011;3957;48.61947800;9.05303100;2024-03-02T00:12:46;8.00;;;5.20;;
7823;SDS011;3957;48.61947800;9.05303100;2024-03-02T00:13:48;7.00;;;4.82;;
7823;SDS011;3957;48.61947800;9.05303100;2024-03-02T00:14:53;7.80;;;5.18;;
7823;SDS011;3957;48.61947800;9.05303100;2024-03-02T00:15:56;6.95;;;4.97;;
7823;SDS011;3957;48.61947800;9.05303100;2024-03-02T00:16:58;6.85;;;4.68;;
7823;SDS011;3957;48.61947800;9.05303100;2024-03-02T00:18:00;8.77;;;5.55;;
7823;SDS011;3957;48.61947800;9.05303100;2024-03-02T00:19:02;8.32;;;5.22;;
7823;SDS011;3957;48.61947800;9.05303100;2024-03-02T00:20:06;7.63;;;4.80;;
7823;SDS011;3957;48.61947800;9.05303100;2024-03-02T00:21:11;8.05;;;5.20;;
7823;SDS011;3957;48.61947800;9.05303100;2024-03-02T00:22:14;8.20;;;5.38;;
7823;SDS011;3957;48.61947800;9.05303100;2024-03-02T00:23:16;6.95;;;5.07;;
7823;SDS011;3957;48.61947800;9.05303100;2024-03-02T00:24:30;7.60;;;5.00;;
7823;SDS011;3957;48.61947800;9.05303100;2024-03-02T00:26:17;6.53;;;4.57;;
7823;SDS011;3957;48.61947800;9.05303100;2024-03-02T00:27:01;8.98;;;5.53;;
7823;SDS011;3957;48.61947800;9.05303100;2024-03-02T00:28:11;7.57;;;5.22;;
7823;SDS011;3957;48.61947800;9.05303100;2024-03-02T00:29:16;9.57;;;4.78;;
7823;SDS011;3957;48.61947800;9.05303100;2024-03-02T00:31:45;7.70;;;5.18;;
7823;SDS011;3957;48.61947800;9.05303100;2024-03-02T00:32:47;8.02;;;5.07;;
7823;SDS011;3957;48.61947800;9.05303100;2024-03-02T00:33:49;7.95;;;5.07;;
7823;SDS011;3957;48.61947800;9.05303100;2024-03-02T00:34:51;8.70;;;5.38;;
7823;SDS011;3957;48.61947800;9.05303100;2024-03-02T00:35:52;6.75;;;4.95;;
7823;SDS011;3957;48.61947800;9.05303100;2024-03-02T00:36:57;6.27;;;4.40;;
7823;SDS011;3957;48.61947800;9.05303100;2024-03-02T00:38:04;8.02;;;5.07;;
7823;SDS011;3957;48.61947800;9.05303100;2024-03-02T00:39:07;6.55;;;4.60;;
7823;SDS011;3957;48.61947800;9.05303100;2024-03-02T00:40:09;7.53;;;4.72;;
7823;SDS011;3957;48.61947800;9.05303100;2024-03-02T00:41:21;9.52;;;5.60;;
7823;SDS011;3957;48.61947800;9.05303100;2024-03-02T00:42:25;9.23;;;5.15;;
7823;SDS011;3957;48.61947800;9.05303100;2024-03-02T00:44:34;8.35;;;5.25;;
7823;SDS011;3957;48.61947800;9.05303100;2024-03-02T00:45:39;8.10;;;5.38;;
7823;SDS011;3957;48.61947800;9.05303100;2024-03-02T00:46:41;7.82;;;5.32;;
7823;SDS011;3957;48.61947800;9.05303100;2024-03-02T00:47:45;6.95;;;5.35;;
7823;SDS011;3957;48.61947800;9.05303100;2024-03-02T00:48:48;9.60;;;5.50;;
7823;SDS011;3957;48.61947800;9.05303100;2024-03-02T00:49:50;8.77;;;5.95;;
7823;SDS011;3957;48.61947800;9.05303100;2024-03-02T00:50:52;8.52;;;5.47;;
7823;SDS011;3957;48.61947800;9.05303100;2024-03-02T00:51:54;9.43;;;5.35;;
7823;SDS011;3957;48.61947800;9.05303100;2024-03-02T00:52:56;7.30;;;5.10;;
7823;SDS011;3957;48.61947800;9.05303100;2024-03-02T00:54:02;7.35;;;4.72;;
7823;SDS011;3957;48.61947800;9.05303100;2024-03-02T00:55:06;7.25;;;4.70;;
7823;SDS011;3957;48.61947800;9.05303100;2024-03-02T00:56:09;6.47;;;4.88;;
7823;SDS011;3957;48.61947800;9.05303100;2024-03-02T00:57:13;6.30;;;4.65;;
7823;SDS011;3957;48.61947800;9.05303100;2024-03-02T00:58:15;7.82;;;4.93;;
7823;SDS011;3957;48.61947800;9.05303100;2024-03-02T00:59:17;6.85;;;4.63;;
7823;SDS011;3957;48.61947800;9.05303100;2024-03-02T01:00:19;6.75;;;5.05;;
7823;SDS011;3957;48.61947800;9.05303100;2024-03-02T01:01:21;8.70;;;5.25;;
7823;SDS011;3957;48.61947800;9.05303100;2024-03-02T01:02:23;7.70;;;5.38;;
7823;SDS011;3957;48.61947800;9.05303100;2024-03-02T01:03:24;6.68;;;4.78;;
7823;SDS011;3957;48.61947800;9.05303100;2024-03-02T01:04:26;9.50;;;5.85;;
7823;SDS011;3957;48.61947800;9.05303100;2024-03-02T01:05:27;9.18;;;5.30;;
7823;SDS011;3957;48.61947800;9.05303100;2024-03-02T01:06:30;8.70;;;5.70;;
7823;SDS011;3957;48.61947800;9.05303100;2024-03-02T01:07:32;7.95;;;5.63;;
7823;SDS011;3957;48.61947800;9.05303100;2024-03-02T01:08:34;6.88;;;5.18;;
7823;SDS011;3957;48.61947800;9.05303100;2024-03-02T01:09:36;7.65;;;4.85;;
7823;SDS011;3957;48.61947800;9.05303100;2024-03-02T01:10:37;7.65;;;5.28;;
7823;SDS011;3957;48.61947800;9.05303100;2024-03-02T01:11:39;7.90;;;5.35;;
7823;SDS011;3957;48.61947800;9.05303100;2024-03-02T01:12:41;10.15;;;5.60;;
7823;SDS011;3957;48.61947800;9.05303100;2024-03-02T01:13:42;8.30;;;5.82;;
7823;SDS011;3957;48.61947800;9.05303100;2024-03-02T01:14:44;8.70;;;5.63;;
7823;SDS011;3957;48.61947800;9.05303100;2024-03-02T01:15:46;9.15;;;5.90;;
7823;SDS011;3957;48.61947800;9.05303100;2024-03-02T01:16:48;9.20;;;5.40;;
7823;SDS011;3957;48.61947800;9.05303100;2024-03-02T01:17:50;9.07;;;5.65;;
7823;SDS011;3957;48.61947800;9.05303100;2024-03-02T01:18:55;8.53;;;5.80;;
7823;SDS011;3957;48.61947800;9.05303100;2024-03-02T01:19:57;12.38;;;7.45;;
7823;SDS011;3957;48.61947800;9.05303100;2024-03-02T01:20:59;10.13;;;6.32;;
7823;SDS011;3957;48.61947800;9.05303100;2024-03-02T01:22:00;9.45;;;6.30;;
7823;SDS011;3957;48.61947800;9.05303100;2024-03-02T01:23:02;8.82;;;5.65;;
7823;SDS011;3957;48.61947800;9.05303100;2024-03-02T01:24:04;8.85;;;5.40;;
7823;SDS011;3957;48.61947800;9.05303100;2024-03-02T01:25:06;9.50;;;5.65;;
7823;SDS011;3957;48.61947800;9.05303100;2024-03-02T01:26:09;8.18;;;5.30;;
7823;SDS011;3957;48.61947800;9.05303100;2024-03-02T01:27:11;9.82;;;5.45;;
7823;SDS011;3957;48.61947800;9.05303100;2024-03-02T01:28:13;8.73;;;5.65;;
7823;SDS011;3957;48.61947800;9.05303100;2024-03-02T01:29:15;8.00;;;5.30;;
7823;SDS011;3957;48.61947800;9.05303100;2024-03-02T01:30:17;7.45;;;5.32;;
7823;SDS011;3957;48.61947800;9.05303100;2024-03-02T01:31:18;8.80;;;5.95;;
7823;SDS011;3957;48.61947800;9.05303100;2024-03-02T01:32:20;11.02;;;6.40;;
7823;SDS011;3957;48.61947800;9.05303100;2024-03-02T01:33:22;9.02;;;6.40;;
7823;SDS011;3957;48.61947800;9.05303100;2024-03-02T01:34:23;9.98;;;6.00;;
7823;SDS011;3957;48.61947800;9.05303100;2024-03-02T01:35:25;10.27;;;5.82;;
7823;SDS011;3957;48.61947800;9.05303100;2024-03-02T01:36:28;10.77;;;6.43;;
7823;SDS011;3957;48.61947800;9.05303100;2024-03-02T01:37:29;10.75;;;6.32;;
7823;SDS011;3957;48.61947800;9.05303100;2024-03-02T01:38:31;9.82;;;5.93;;
7823;SDS011;3957;48.61947800;9.05303100;2024-03-02T01:39:32;11.40;;;6.32;;
7823;SDS011;3957;48.61947800;9.05303100;2024-03-02T01:40:34;11.02;;;6.53;;
7823;SDS011;3957;48.61947800;9.05303100;2024-03-02T01:41:36;8.43;;;5.75;;
7823;SDS011;3957;48.61947800;9.05303100;2024-03-02T01:42:38;10.45;;;5.85;;
7823;SDS011;3957;48.61947800;9.05303100;2024-03-02T01:43:40;9.55;;;6.53;;
7823;SDS011;3957;48.61947800;9.05303100;2024-03-02T01:44:42;9.88;;;5.47;;
7823;SDS011;3957;48.61947800;9.05303100;2024-03-02T01:45:44;7.65;;;5.40;;
7823;SDS011;3957;48.61947800;9.05303100;2024-03-02T01:46:45;10.05;;;6.38;;
7823;SDS011;3957;48.61947800;9.05303100;2024-03-02T01:47:47;10.30;;;5.90;;
7823;SDS011;3957;48.61947800;9.05303100;2024-03-02T01:48:49;10.98;;;7.00;;
7823;SDS011;3957;48.61947800;9.05303100;2024-03-02T01:49:50;10.25;;;6.47;;
7823;SDS011;3957;48.61947800;9.05303100;2024-03-02T01:50:52;10.37;;;6.27;;
7823;SDS011;3957;48.61947800;9.05303100;2024-03-02T01:51:54;9.82;;;6.45;;
7823;SDS011;3957;48.61947800;9.05303100;2024-03-02T01:52:56;8.35;;;6.00;;
7823;SDS011;3957;48.61947800;9.05303100;2024-03-02T01:53:58;10.70;;;6.47;;
7823;SDS011;3957;48.61947800;9.05303100;2024-03-02T01:54:59;9.63;;;6.60;;
7823;SDS011;3957;48.61947800;9.05303100;2024-03-02T01:56:01;9.52;;;6.22;;
7823;SDS011;3957;48.61947800;9.05303100;2024-03-02T01:57:03;9.23;;;6.07;;
7823;SDS011;3957;48.61947800;9.05303100;2024-03-02T01:58:05;10.82;;;6.63;;
7823;SDS011;3957;48.61947800;9.05303100;2024-03-02T01:59:06;11.85;;;7.20;;
7823;SDS011;3957;48.61947800;9.05303100;2024-03-02T02:00:08;12.23;;;6.07;;
7823;SDS011;3957;48.61947800;9.05303100;2024-03-02T02:01:13;11.30;;;7.20;;
7823;SDS011;3957;48.61947800;9.05303100;2024-03-02T02:02:15;10.35;;;6.70;;
7823;SDS011;3957;48.61947800;9.05303100;2024-03-02T02:03:17;10.90;;;6.55;;
7823;SDS011;3957;48.61947800;9.05303100;2024-03-02T02:04:18;12.43;;;7.50;;
7823;SDS011;3957;48.61947800;9.05303100;2024-03-02T02:05:22;11.68;;;7.20;;
7823;SDS011;3957;48.61947800;9.05303100;2024-03-02T02:06:24;13.05;;;6.75;;
7823;SDS011;3957;48.61947800;9.05303100;2024-03-02T02:07:26;10.25;;;7.07;;
7823;SDS011;3957;48.61947800;9.05303100;2024-03-02T02:08:27;10.53;;;6.90;;
7823;SDS011;3957;48.61947800;9.05303100;2024-03-02T02:09:29;9.38;;;6.63;;
7823;SDS011;3957;48.61947800;9.05303100;2024-03-02T02:10:30;11.90;;;6.75;;
7823;SDS011;3957;48.61947800;9.05303100;2024-03-02T02:11:32;11.98;;;7.38;;
7823;SDS011;3957;48.61947800;9.05303100;2024-03-02T02:12:34;11.18;;;6.85;;
7823;SDS011;3957;48.61947800;9.05303100;2024-03-02T02:13:37;13.30;;;7.50;;
7823;SDS011;3957;48.61947800;9.05303100;2024-03-02T02:14:39;9.18;;;6.60;;
7823;SDS011;3957;48.61947800;9.05303100;2024-03-02T02:15:49;10.88;;;6.47;;
7823;SDS011;3957;48.61947800;9.05303100;2024-03-02T02:16:52;9.60;;;6.63;;
7823;SDS011;3957;48.61947800;9.05303100;2024-03-02T02:17:54;9.23;;;6.50;;
7823;SDS011;3957;48.61947800;9.05303100;2024-03-02T02:18:56;8.88;;;6.47;;
7823;SDS011;3957;48.61947800;9.05303100;2024-03-02T02:19:57;11.50;;;6.30;;
7823;SDS011;3957;48.61947800;9.05303100;2024-03-02T02:20:59;11.70;;;6.60;;
7823;SDS011;3957;48.61947800;9.05303100;2024-03-02T02:22:00;10.23;;;6.03;;
7823;SDS011;3957;48.61947800;9.05303100;2024-03-02T02:23:03;10.02;;;6.60;;
7823;SDS011;3957;48.61947800;9.05303100;2024-03-02T02:24:06;10.50;;;7.10;;
7823;SDS011;3957;48.61947800;9.05303100;2024-03-02T02:25:08;10.45;;;6.70;;
7823;SDS011;3957;48.61947800;9.05303100;2024-03-02T02:26:09;10.93;;;6.55;;
7823;SDS011;3957;48.61947800;9.05303100;2024-03-02T02:27:11;10.02;;;6.68;;
7823;SDS011;3957;48.61947800;9.05303100;2024-03-02T02:28:15;11.57;;;7.17;;
7823;SDS011;3957;48.61947800;9.05303100;2024-03-02T02:29:17;12.07;;;7.40;;
7823;SDS011;3957;48.61947800;9.05303100;2024-03-02T02:30:19;11.75;;;6.85;;
7823;SDS011;3957;48.61947800;9.05303100;2024-03-02T02:31:22;11.00;;;6.70;;
7823;SDS011;3957;48.61947800;9.05303100;2024-03-02T02:32:23;11.77;;;6.68;;
7823;SDS011;3957;48.61947800;9.05303100;2024-03-02T02:33:25;12.50;;;7.63;;
7823;SDS011;3957;48.61947800;9.05303100;2024-03-02T02:34:27;11.35;;;6.88;;
7823;SDS011;3957;48.61947800;9.05303100;2024-03-02T02:35:28;12.05;;;7.18;;
7823;SDS011;3957;48.61947800;9.05303100;2024-03-02T02:36:33;10.35;;;7.00;;
7823;SDS011;3957;48.61947800;9.05303100;2024-03-02T02:37:35;10.68;;;6.88;;
7823;SDS011;3957;48.61947800;9.05303100;2024-03-02T02:38:38;11.65;;;6.35;;
7823;SDS011;3957;48.61947800;9.05303100;2024-03-02T02:39:44;11.07;;;6.55;;
7823;SDS011;3957;48.61947800;9.05303100;2024-03-02T02:40:47;11.68;;;7.03;;
7823;SDS011;3957;48.61947800;9.05303100;2024-03-02T02:41:49;10.68;;;6.40;;
7823;SDS011;3957;48.61947800;9.05303100;2024-03-02T02:42:50;10.30;;;6.80;;
7823;SDS011;3957;48.61947800;9.05303100;2024-03-02T02:43:55;10.30;;;6.20;;
7823;SDS011;3957;48.61947800;9.05303100;2024-03-02T02:44:57;10.52;;;6.82;;
7823;SDS011;3957;48.61947800;9.05303100;2024-03-02T02:45:58;11.25;;;7.10;;
7823;SDS011;3957;48.61947800;9.05303100;2024-03-02T02:47:00;9.25;;;6.68;;
7823;SDS011;3957;48.61947800;9.05303100;2024-03-02T02:48:01;11.98;;;6.45;;
7823;SDS011;3957;48.61947800;9.05303100;2024-03-02T02:49:04;12.55;;;7.50;;
7823;SDS011;3957;48.61947800;9.05303100;2024-03-02T02:50:07;14.20;;;6.70;;
7823;SDS011;3957;48.61947800;9.05303100;2024-03-02T02:51:10;10.63;;;6.30;;
7823;SDS011;3957;48.61947800;9.05303100;2024-03-02T02:52:12;12.05;;;6.93;;
7823;SDS011;3957;48.61947800;9.05303100;2024-03-02T02:53:13;12.52;;;6.57;;
7823;SDS011;3957;48.61947800;9.05303100;2024-03-02T02:54:15;10.43;;;6.60;;
7823;SDS011;3957;48.61947800;9.05303100;2024-03-02T02:55:17;11.10;;;6.72;;
7823;SDS011;3957;48.61947800;9.05303100;2024-03-02T02:56:19;11.38;;;6.82;;
7823;SDS011;3957;48.61947800;9.05303100;2024-03-02T02:57:20;12.05;;;7.30;;
7823;SDS011;3957;48.61947800;9.05303100;2024-03-02T02:58:22;12.77;;;6.95;;
7823;SDS011;3957;48.61947800;9.05303100;2024-03-02T02:59:23;11.43;;;6.43;;
7823;SDS011;3957;48.61947800;9.05303100;2024-03-02T03:00:25;11.32;;;6.55;;
7823;SDS011;3957;48.61947800;9.05303100;2024-03-02T03:01:27;13.55;;;7.50;;
7823;SDS011;3957;48.61947800;9.05303100;2024-03-02T03:02:29;11.15;;;6.45;;
7823;SDS011;3957;48.61947800;9.05303100;2024-03-02T03:03:30;11.07;;;6.50;;
7823;SDS011;3957;48.61947800;9.05303100;2024-03-02T03:04:32;13.43;;;7.25;;
7823;SDS011;3957;48.61947800;9.05303100;2024-03-02T03:05:33;10.63;;;6.70;;
7823;SDS011;3957;48.61947800;9.05303100;2024-03-02T03:06:35;9.82;;;6.63;;
7823;SDS011;3957;48.61947800;9.05303100;2024-03-02T03:07:36;11.20;;;6.45;;
7823;SDS011;3957;48.61947800;9.05303100;2024-03-02T03:08:38;12.82;;;7.07;;
7823;SDS011;3957;48.61947800;9.05303100;2024-03-02T03:09:40;12.13;;;6.88;;
7823;SDS011;3957;48.61947800;9.05303100;2024-03-02T03:10:42;10.90;;;6.60;;
7823;SDS011;3957;48.61947800;9.05303100;2024-03-02T03:11:43;12.63;;;7.50;;
7823;SDS011;3957;48.61947800;9.05303100;2024-03-02T03:12:45;13.35;;;6.97;;
7823;SDS011;3957;48.61947800;9.05303100;2024-03-02T03:13:47;13.45;;;6.78;;
7823;SDS011;3957;48.61947800;9.05303100;2024-03-02T03:14:49;13.57;;;6.88;;
7823;SDS011;3957;48.61947800;9.05303100;2024-03-02T03:15:51;10.88;;;6.40;;
7823;SDS011;3957;48.61947800;9.05303100;2024-03-02T03:16:52;10.57;;;7.20;;
7823;SDS011;3957;48.61947800;9.05303100;2024-03-02T03:17:54;18.27;;;8.07;;
7823;SDS011;3957;48.61947800;9.05303100;2024-03-02T03:18:55;13.48;;;8.68;;
7823;SDS011;3957;48.61947800;9.05303100;2024-03-02T03:19:57;13.47;;;7.57;;
7823;SDS011;3957;48.61947800;9.05303100;2024-03-02T03:20:58;11.48;;;6.95;;
7823;SDS011;3957;48.61947800;9.05303100;2024-03-02T03:22:00;10.75;;;6.82;;
7823;SDS011;3957;48.61947800;9.05303100;2024-03-02T03:23:02;11.30;;;6.97;;
7823;SDS011;3957;48.61947800;9.05303100;2024-03-02T03:24:05;11.70;;;7.55;;
7823;SDS011;3957;48.61947800;9.05303100;2024-03-02T03:25:06;10.85;;;6.82;;
7823;SDS011;3957;48.61947800;9.05303100;2024-03-02T03:26:11;11.75;;;7.18;;
7823;SDS011;3957;48.61947800;9.05303100;2024-03-02T03:27:13;10.63;;;7.28;;
7823;SDS011;3957;48.61947800;9.05303100;2024-03-02T03:28:14;11.60;;;7.35;;
7823;SDS011;3957;48.61947800;9.05303100;2024-03-02T03:29:16;9.40;;;6.40;;
7823;SDS011;3957;48.61947800;9.05303100;2024-03-02T03:30:18;10.20;;;6.50;;
7823;SDS011;3957;48.61947800;9.05303100;2024-03-02T03:31:20;10.77;;;6.30;;
7823;SDS011;3957;48.61947800;9.05303100;2024-03-02T03:32:21;11.80;;;6.63;;
7823;SDS011;3957;48.61947800;9.05303100;2024-03-02T03:33:23;11.07;;;6.90;;
7823;SDS011;3957;48.61947800;9.05303100;2024-03-02T03:34:25;10.32;;;6.47;;
7823;SDS011;3957;48.61947800;9.05303100;2024-03-02T03:35:28;10.15;;;6.70;;
7823;SDS011;3957;48.61947800;9.05303100;2024-03-02T03:36:30;13.73;;;7.10;;
7823;SDS011;3957;48.61947800;9.05303100;2024-03-02T03:37:32;10.15;;;6.07;;
7823;SDS011;3957;48.61947800;9.05303100;2024-03-02T03:38:36;10.47;;;6.27;;
7823;SDS011;3957;48.61947800;9.05303100;2024-03-02T03:39:38;11.30;;;6.75;;
7823;SDS011;3957;48.61947800;9.05303100;2024-03-02T03:40:39;12.52;;;7.13;;
7823;SDS011;3957;48.61947800;9.05303100;2024-03-02T03:41:41;8.90;;;5.95;;
7823;SDS011;3957;48.61947800;9.05303100;2024-03-02T03:42:42;11.40;;;7.15;;
7823;SDS011;3957;48.61947800;9.05303100;2024-03-02T03:43:46;12.07;;;7.25;;
7823;SDS011;3957;48.61947800;9.05303100;2024-03-02T03:44:47;10.25;;;6.80;;
7823;SDS011;3957;48.61947800;9.05303100;2024-03-02T03:45:49;11.85;;;7.05;;
7823;SDS011;3957;48.61947800;9.05303100;2024-03-02T03:46:50;9.60;;;6.50;;
7823;SDS011;3957;48.61947800;9.05303100;2024-03-02T03:47:53;10.77;;;6.70;;
7823;SDS011;3957;48.61947800;9.05303100;2024-03-02T03:48:55;9.30;;;6.43;;
7823;SDS011;3957;48.61947800;9.05303100;2024-03-02T03:49:57;10.10;;;6.30;;
7823;SDS011;3957;48.61947800;9.05303100;2024-03-02T03:50:59;9.75;;;6.38;;
7823;SDS011;3957;48.61947800;9.05303100;2024-03-02T03:52:00;11.32;;;6.50;;
7823;SDS011;3957;48.61947800;9.05303100;2024-03-02T03:53:02;10.35;;;6.32;;
7823;SDS011;3957;48.61947800;9.05303100;2024-03-02T03:54:04;10.80;;;6.43;;
7823;SDS011;3957;48.61947800;9.05303100;2024-03-02T03:55:05;10.20;;;6.68;;
7823;SDS011;3957;48.61947800;9.05303100;2024-03-02T03:56:07;10.55;;;6.65;;
7823;SDS011;3957;48.61947800;9.05303100;2024-03-02T03:57:09;11.80;;;6.85;;
7823;SDS011;3957;48.61947800;9.05303100;2024-03-02T03:58:10;10.35;;;6.55;;
7823;SDS011;3957;48.61947800;9.05303100;2024-03-02T03:59:12;10.45;;;6.63;;
7823;SDS011;3957;48.61947800;9.05303100;2024-03-02T04:00:14;9.57;;;6.25;;
7823;SDS011;3957;48.61947800;9.05303100;2024-03-02T04:01:16;11.18;;;6.15;;
7823;SDS011;3957;48.61947800;9.05303100;2024-03-02T04:02:17;10.15;;;6.15;;
7823;SDS011;3957;48.61947800;9.05303100;2024-03-02T04:03:19;10.18;;;6.32;;
7823;SDS011;3957;48.61947800;9.05303100;2024-03-02T04:04:21;10.30;;;6.70;;
7823;SDS011;3957;48.61947800;9.05303100;2024-03-02T04:05:22;10.23;;;6.35;;
7823;SDS011;3957;48.61947800;9.05303100;2024-03-02T04:06:24;10.70;;;6.13;;
7823;SDS011;3957;48.61947800;9.05303100;2024-03-02T04:07:25;12.55;;;6.85;;
7823;SDS011;3957;48.61947800;9.05303100;2024-03-02T04:08:27;10.00;;;6.05;;
7823;SDS011;3957;48.61947800;9.05303100;2024-03-02T04:09:28;9.48;;;5.60;;
7823;SDS011;3957;48.61947800;9.05303100;2024-03-02T04:10:30;9.52;;;6.40;;
7823;SDS011;3957;48.61947800;9.05303100;2024-03-02T04:11:31;9.65;;;6.22;;
7823;SDS011;3957;48.61947800;9.05303100;2024-03-02T04:12:33;11.30;;;6.32;;
7823;SDS011;3957;48.61947800;9.05303100;2024-03-02T04:13:35;9.68;;;6.65;;
7823;SDS011;3957;48.61947800;9.05303100;2024-03-02T04:14:37;10.90;;;6.75;;
7823;SDS011;3957;48.61947800;9.05303100;2024-03-02T04:15:39;11.23;;;6.90;;
7823;SDS011;3957;48.61947800;9.05303100;2024-03-02T04:16:41;10.70;;;6.55;;
7823;SDS011;3957;48.61947800;9.05303100;2024-03-02T04:17:43;11.30;;;6.10;;
7823;SDS011;3957;48.61947800;9.05303100;2024-03-02T04:18:44;11.68;;;6.40;;
7823;SDS011;3957;48.61947800;9.05303100;2024-03-02T04:19:46;9.20;;;6.22;;
7823;SDS011;3957;48.61947800;9.05303100;2024-03-02T04:20:48;10.27;;;6.55;;
7823;SDS011;3957;48.61947800;9.05303100;2024-03-02T04:21:52;10.73;;;6.28;;
7823;SDS011;3957;48.61947800;9.05303100;2024-03-02T04:22:54;10.70;;;6.37;;
7823;SDS011;3957;48.61947800;9.05303100;2024-03-02T04:23:55;8.82;;;5.80;;
7823;SDS011;3957;48.61947800;9.05303100;2024-03-02T04:25:00;9.95;;;6.15;;
7823;SDS011;3957;48.61947800;9.05303100;2024-03-02T04:26:02;11.25;;;6.68;;
7823;SDS011;3957;48.61947800;9.05303100;2024-03-02T04:27:03;12.43;;;6.95;;
7823;SDS011;3957;48.61947800;9.05303100;2024-03-02T04:28:05;9.30;;;5.82;;
7823;SDS011;3957;48.61947800;9.05303100;2024-03-02T04:29:06;9.15;;;6.10;;
7823;SDS011;3957;48.61947800;9.05303100;2024-03-02T04:30:08;13.07;;;6.40;;
7823;SDS011;3957;48.61947800;9.05303100;2024-03-02T04:31:09;8.80;;;6.00;;
7823;SDS011;3957;48.61947800;9.05303100;2024-03-02T04:32:11;8.73;;;6.38;;
7823;SDS011;3957;48.61947800;9.05303100;2024-03-02T04:33:12;11.27;;;6.32;;
7823;SDS011;3957;48.61947800;9.05303100;2024-03-02T04:34:14;11.82;;;6.05;;
7823;SDS011;3957;48.61947800;9.05303100;2024-03-02T04:35:16;11.27;;;6.20;;
7823;SDS011;3957;48.61947800;9.05303100;2024-03-02T04:36:17;11.02;;;6.93;;
7823;SDS011;3957;48.61947800;9.05303100;2024-03-02T04:37:19;9.85;;;6.50;;
7823;SDS011;3957;48.61947800;9.05303100;2024-03-02T04:38:20;10.47;;;6.30;;
7823;SDS011;3957;48.61947800;9.05303100;2024-03-02T04:39:22;9.27;;;6.25;;
7823;SDS011;3957;48.61947800;9.05303100;2024-03-02T04:40:24;10.18;;;5.45;;
7823;SDS011;3957;48.61947800;9.05303100;2024-03-02T04:41:25;8.45;;;5.68;;
7823;SDS011;3957;48.61947800;9.05303100;2024-03-02T04:42:27;11.45;;;6.85;;
7823;SDS011;3957;48.61947800;9.05303100;2024-03-02T04:43:29;9.95;;;6.45;;
7823;SDS011;3957;48.61947800;9.05303100;2024-03-02T04:44:30;11.20;;;6.72;;
7823;SDS011;3957;48.61947800;9.05303100;2024-03-02T04:45:32;10.20;;;6.53;;
7823;SDS011;3957;48.61947800;9.05303100;2024-03-02T04:46:33;8.73;;;5.53;;
7823;SDS011;3957;48.61947800;9.05303100;2024-03-02T04:47:34;10.55;;;6.22;;
7823;SDS011;3957;48.61947800;9.05303100;2024-03-02T04:48:36;11.90;;;6.05;;
7823;SDS011;3957;48.61947800;9.05303100;2024-03-02T04:49:38;8.65;;;5.28;;
7823;SDS011;3957;48.61947800;9.05303100;2024-03-02T04:50:39;11.07;;;6.05;;
7823;SDS011;3957;48.61947800;9.05303100;2024-03-02T04:51:41;10.10;;;5.63;;
7823;SDS011;3957;48.61947800;9.05303100;2024-03-02T04:52:43;10.00;;;5.82;;
7823;SDS011;3957;48.61947800;9.05303100;2024-03-02T04:53:44;8.98;;;5.38;;
7823;SDS011;3957;48.61947800;9.05303100;2024-03-02T04:54:46;12.32;;;5.80;;
7823;SDS011;3957;48.61947800;9.05303100;2024-03-02T04:56:05;11.25;;;5.78;;
7823;SDS011;3957;48.61947800;9.05303100;2024-03-02T04:57:26;8.57;;;5.47;;
7823;SDS011;3957;48.61947800;9.05303100;2024-03-02T04:58:27;8.23;;;5.47;;
7823;SDS011;3957;48.61947800;9.05303100;2024-03-02T04:59:29;9.00;;;5.80;;
7823;SDS011;3957;48.61947800;9.05303100;2024-03-02T05:00:30;10.90;;;6.57;;
7823;SDS011;3957;48.61947800;9.05303100;2024-03-02T05:01:32;9.90;;;5.95;;
7823;SDS011;3957;48.61947800;9.05303100;2024-03-02T05:02:34;9.43;;;5.65;;
7823;SDS011;3957;48.61947800;9.05303100;2024-03-02T05:03:36;9.27;;;5.68;;
7823;SDS011;3957;48.61947800;9.05303100;2024-03-02T05:04:38;10.33;;;5.67;;
7823;SDS011;3957;48.61947800;9.05303100;2024-03-02T05:05:40;10.95;;;6.00;;
7823;SDS011;3957;48.61947800;9.05303100;2024-03-02T05:06:41;9.10;;;6.13;;
7823;SDS011;3957;48.61947800;9.05303100;2024-03-02T05:07:43;9.98;;;5.85;;
7823;SDS011;3957;48.61947800;9.05303100;2024-03-02T05:08:45;7.95;;;5.43;;
7823;SDS011;3957;48.61947800;9.05303100;2024-03-02T05:09:47;9.82;;;5.93;;
7823;SDS011;3957;48.61947800;9.05303100;2024-03-02T05:10:49;8.43;;;5.40;;
7823;SDS011;3957;48.61947800;9.05303100;2024-03-02T05:11:51;9.63;;;5.93;;
7823;SDS011;3957;48.61947800;9.05303100;2024-03-02T05:13:11;10.55;;;5.78;;
7823;SDS011;3957;48.61947800;9.05303100;2024-03-02T05:14:13;8.63;;;6.18;;
7823;SDS011;3957;48.61947800;9.05303100;2024-03-02T05:15:15;10.80;;;6.65;;
7823;SDS011;3957;48.61947800;9.05303100;2024-03-02T05:16:16;11.73;;;6.22;;
7823;SDS011;3957;48.61947800;9.05303100;2024-03-02T05:17:18;9.65;;;5.88;;
7823;SDS011;3957;48.61947800;9.05303100;2024-03-02T05:18:19;9.32;;;5.82;;
7823;SDS011;3957;48.61947800;9.05303100;2024-03-02T05:19:21;9.55;;;6.03;;
7823;SDS011;3957;48.61947800;9.05303100;2024-03-02T05:20:22;8.02;;;5.25;;
7823;SDS011;3957;48.61947800;9.05303100;2024-03-02T05:21:24;8.93;;;5.40;;
7823;SDS011;3957;48.61947800;9.05303100;2024-03-02T05:22:26;8.40;;;5.53;;
7823;SDS011;3957;48.61947800;9.05303100;2024-03-02T05:23:27;10.13;;;5.40;;
7823;SDS011;3957;48.61947800;9.05303100;2024-03-02T05:24:28;8.80;;;5.40;;
7823;SDS011;3957;48.61947800;9.05303100;2024-03-02T05:25:30;9.57;;;5.63;;
7823;SDS011;3957;48.61947800;9.05303100;2024-03-02T05:26:32;9.00;;;5.60;;
7823;SDS011;3957;48.61947800;9.05303100;2024-03-02T05:27:33;8.45;;;5.28;;
7823;SDS011;3957;48.61947800;9.05303100;2024-03-02T05:28:36;8.10;;;5.78;;
7823;SDS011;3957;48.61947800;9.05303100;2024-03-02T05:29:37;9.73;;;5.77;;
7823;SDS011;3957;48.61947800;9.05303100;2024-03-02T05:30:39;11.57;;;5.68;;
7823;SDS011;3957;48.61947800;9.05303100;2024-03-02T05:31:41;7.85;;;5.22;;
7823;SDS011;3957;48.61947800;9.05303100;2024-03-02T05:32:42;10.70;;;5.85;;
7823;SDS011;3957;48.61947800;9.05303100;2024-03-02T05:33:44;10.13;;;6.05;;
7823;SDS011;3957;48.61947800;9.05303100;2024-03-02T05:34:46;10.18;;;6.20;;